Time;durP1;ratioP1;P1;durP2;ratioP2;P2;SDS_P1;SDS_P2;PMS_P1;PMS_P2;Temp;Humidity;BMP_temperature;BMP_pressure;BME280_temperature;BME280_humidity;BME280_pressure;Samples;Min_cycle;Max_cycle;Signal;HPM_P1;HPM_P2
2022/08/18 00:01:39;;;;;;;;;;;;;;;21.48;37.25;100840.34;5089352;28;19931;-69
2022/08/18 00:04:09;;;;;;;;;;;;;;;21.44;37.46;100833.47;5084765;28;19924;-68
2022/08/18 00:06:56;;;;;;;;;;;;;;;21.41;37.55;100845.91;5098077;28;19927;-68
2022/08/18 00:09:25;;;;;;;;;;;;;;;21.40;37.42;100837.75;5094957;28;20282;-68
2022/08/18 00:12:00;;;;;;;;;;;;;;;21.37;37.69;100833.44;5078760;28;20015;-68
2022/08/18 00:14:28;;;;;;;;;;;;;;;21.34;37.79;100839.44;5087427;28;20308;-68
2022/08/18 00:16:56;;;;;;;;;;;;;;;21.31;37.62;100847.31;5088287;28;20372;-68
2022/08/18 00:19:23;;;;;;;;;;;;;;;21.28;37.56;100845.81;5088368;27;20085;-69
2022/08/18 00:22:12;;;;;;;;;;;;;;;21.25;37.95;100848.97;5083564;28;19969;-68
2022/08/18 00:24:43;;;;;;;;;;;;;;;21.23;37.98;100856.66;5092418;28;20457;-68
2022/08/18 00:27:18;;;;;;;;;;;;;;;21.20;38.12;100859.84;5087058;28;20736;-68
2022/08/18 00:29:48;;;;;;;;;;;;;;;21.18;38.27;100870.34;5094512;28;20389;-69
2022/08/18 00:32:17;;;;;;;;;;;;;;;21.15;38.15;100871.59;5089723;28;19931;-68
2022/08/18 00:34:44;;;;;;;;;;;;;;;21.14;38.40;100864.31;5090966;28;19924;-68
2022/08/18 00:37:12;;;;;;;;;;;;;;;21.12;38.70;100862.78;5087164;28;20273;-68
2022/08/18 00:39:40;;;;;;;;;;;;;;;21.10;38.94;100853.81;5090259;28;19924;-68
2022/08/18 00:42:17;;;;;;;;;;;;;;;21.10;38.48;100851.03;5087822;28;19970;-69
2022/08/18 00:44:57;;;;;;;;;;;;;;;21.08;38.90;100840.09;5097618;28;19931;-68
2022/08/18 00:47:27;;;;;;;;;;;;;;;21.07;39.13;100840.28;5105589;28;19942;-68
2022/08/18 00:50:12;;;;;;;;;;;;;;;21.06;38.96;100847.78;5087055;28;19930;-68
2022/08/18 00:52:43;;;;;;;;;;;;;;;21.03;38.73;100842.59;5097044;28;20471;-68
2022/08/18 00:55:11;;;;;;;;;;;;;;;21.00;38.96;100840.25;5089545;28;19931;-69
2022/08/18 00:57:41;;;;;;;;;;;;;;;20.99;38.53;100841.31;5104367;28;19931;-68
2022/08/18 01:00:10;;;;;;;;;;;;;;;20.97;38.68;100837.88;5086746;28;20339;-68
2022/08/18 01:02:41;;;;;;;;;;;;;;;20.94;38.82;100835.50;5090631;28;19924;-68
2022/08/18 01:05:12;;;;;;;;;;;;;;;20.93;38.63;100833.78;5093072;28;19931;-68
2022/08/18 01:07:43;;;;;;;;;;;;;;;20.91;39.24;100829.47;5083656;28;19963;-69
2022/08/18 01:10:14;;;;;;;;;;;;;;;20.89;39.05;100832.47;5094001;28;19924;-68
2022/08/18 01:12:44;;;;;;;;;;;;;;;20.88;39.16;100832.66;5087358;28;19924;-68
2022/08/18 01:15:15;;;;;;;;;;;;;;;20.86;38.93;100838.41;5086325;28;19964;-69
2022/08/18 01:23:44;;;;;;;;;;;;;;;20.78;39.38;100846.91;5066738;28;19924;-67
2022/08/18 01:26:10;;;;;;;;;;;;;;;20.77;39.16;100848.00;5083774;28;19932;-68
2022/08/18 01:28:40;;;;;;;;;;;;;;;20.75;39.05;100847.34;5086696;28;19924;-67
2022/08/18 01:31:09;;;;;;;;;;;;;;;20.73;39.51;100841.09;5085799;28;19951;-67
2022/08/18 01:33:39;;;;;;;;;;;;;;;20.71;39.39;100841.31;5077341;28;19936;-67
2022/08/18 01:36:13;;;;;;;;;;;;;;;20.70;39.64;100849.84;5106423;22;19912;-67
2022/08/18 01:38:41;;;;;;;;;;;;;;;20.68;39.82;100858.41;5031494;28;20012;-66
2022/08/18 01:41:10;;;;;;;;;;;;;;;20.67;39.85;100862.25;5039974;28;19929;-66
2022/08/18 01:43:57;;;;;;;;;;;;;;;20.65;39.56;100860.72;5043259;28;19928;-67
2022/08/18 01:46:26;;;;;;;;;;;;;;;20.64;39.71;100862.63;5043451;28;19924;-67
2022/08/18 01:48:54;;;;;;;;;;;;;;;20.62;39.81;100867.53;5037754;28;20344;-67
2022/08/18 01:51:23;;;;;;;;;;;;;;;20.62;39.60;100861.09;5041267;28;19925;-67
2022/08/18 01:54:07;;;;;;;;;;;;;;;20.61;39.86;100860.25;5038424;28;19933;-67
2022/08/18 01:56:36;;;;;;;;;;;;;;;20.61;39.82;100862.19;5036129;28;20369;-67
2022/08/18 01:59:04;;;;;;;;;;;;;;;20.60;39.79;100860.47;5040178;28;19925;-67
2022/08/18 02:01:32;;;;;;;;;;;;;;;20.59;40.01;100865.16;5038553;28;20242;-67
2022/08/18 02:04:05;;;;;;;;;;;;;;;20.59;40.30;100870.72;5032823;28;19933;-67
2022/08/18 02:06:54;;;;;;;;;;;;;;;20.59;39.86;100878.22;5039495;28;19925;-67
2022/08/18 02:09:22;;;;;;;;;;;;;;;20.58;40.07;100870.88;5032769;28;19933;-67
2022/08/18 02:11:52;;;;;;;;;;;;;;;20.58;40.12;100857.00;5043207;28;20277;-69
2022/08/18 02:14:22;;;;;;;;;;;;;;;20.57;40.04;100858.03;5040999;28;19925;-69
2022/08/18 02:16:55;;;;;;;;;;;;;;;20.56;40.12;100871.09;5054730;28;19973;-69
2022/08/18 02:19:32;;;;;;;;;;;;;;;20.57;40.47;100866.38;5040625;28;20059;-69
2022/08/18 02:22:00;;;;;;;;;;;;;;;20.55;40.29;100865.72;5040833;28;20024;-69
2022/08/18 02:24:27;;;;;;;;;;;;;;;20.55;40.20;100858.25;5038401;28;20412;-69
2022/08/18 02:26:56;;;;;;;;;;;;;;;20.54;40.21;100850.09;5038560;28;19951;-69
2022/08/18 02:29:24;;;;;;;;;;;;;;;20.53;39.95;100848.41;5047258;28;19924;-69
2022/08/18 02:31:52;;;;;;;;;;;;;;;20.51;39.95;100833.84;5038002;28;19955;-69
2022/08/18 02:34:20;;;;;;;;;;;;;;;20.49;40.27;100833.16;5044566;28;19931;-68
2022/08/18 02:36:48;;;;;;;;;;;;;;;20.48;40.14;100837.00;5035279;28;19971;-69
2022/08/18 02:39:15;;;;;;;;;;;;;;;20.46;40.55;100836.34;5039038;28;19925;-68
2022/08/18 02:41:43;;;;;;;;;;;;;;;20.44;40.03;100842.13;5043540;28;20339;-68
2022/08/18 02:44:12;;;;;;;;;;;;;;;20.42;40.54;100835.88;5034444;28;19935;-69
2022/08/18 02:46:40;;;;;;;;;;;;;;;20.40;40.45;100832.44;5039552;28;20258;-69
2022/08/18 02:49:07;;;;;;;;;;;;;;;20.38;40.50;100834.56;5042104;28;19925;-69
2022/08/18 02:51:35;;;;;;;;;;;;;;;20.36;40.20;100842.25;5043781;28;19956;-69
2022/08/18 02:54:08;;;;;;;;;;;;;;;20.33;40.04;100837.09;5046382;28;20293;-69
2022/08/18 02:56:36;;;;;;;;;;;;;;;20.30;40.06;100843.88;5054981;28;19968;-69
2022/08/18 02:59:09;;;;;;;;;;;;;;;20.29;40.26;100836.59;5044864;28;19979;-69
2022/08/18 03:01:40;;;;;;;;;;;;;;;20.26;40.56;100837.03;5040517;28;20333;-69
2022/08/18 03:04:09;;;;;;;;;;;;;;;20.25;40.71;100842.78;5044922;28;19929;-69
2022/08/18 03:06:38;;;;;;;;;;;;;;;20.22;40.37;100832.91;5048257;28;20011;-68
2022/08/18 03:09:07;;;;;;;;;;;;;;;20.20;40.15;100843.34;5038533;28;19925;-69
2022/08/18 03:11:35;;;;;;;;;;;;;;;20.17;40.34;100852.09;5041351;28;19932;-68
2022/08/18 03:14:04;;;;;;;;;;;;;;;20.16;40.82;100852.28;5046834;28;19937;-69
2022/08/18 03:16:32;;;;;;;;;;;;;;;20.13;40.24;100847.97;5046232;28;20683;-68
2022/08/18 03:19:02;;;;;;;;;;;;;;;20.12;40.85;100848.19;5036406;28;20589;-69
2022/08/18 03:21:31;;;;;;;;;;;;;;;20.10;40.77;100841.97;5050978;28;20019;-68
2022/08/18 03:23:59;;;;;;;;;;;;;;;20.09;40.71;100846.66;5044357;28;20357;-68
2022/08/18 03:26:30;;;;;;;;;;;;;;;20.08;40.64;100844.09;5033249;28;20018;-69
2022/08/18 03:28:59;;;;;;;;;;;;;;;20.06;40.50;100846.19;5039842;28;20301;-69
2022/08/18 03:31:28;;;;;;;;;;;;;;;20.04;41.00;100843.59;5037454;28;20016;-69
2022/08/18 03:33:57;;;;;;;;;;;;;;;20.04;40.94;100845.56;5041511;28;19929;-68
2022/08/18 03:36:30;;;;;;;;;;;;;;;20.03;41.04;100847.47;5038417;28;19928;-69
2022/08/18 03:38:59;;;;;;;;;;;;;;;20.01;41.04;100850.44;5045912;28;19948;-69
2022/08/18 03:41:27;;;;;;;;;;;;;;;20.01;41.26;100850.44;5037921;28;19932;-68
2022/08/18 03:44:15;;;;;;;;;;;;;;;20.01;40.89;100850.44;5044904;28;19975;-68
2022/08/18 03:46:43;;;;;;;;;;;;;;;20.01;41.31;100852.34;5044407;28;19935;-68
2022/08/18 03:49:12;;;;;;;;;;;;;;;20.00;41.55;100854.25;5043835;28;20013;-68
2022/08/18 03:51:44;;;;;;;;;;;;;;;20.01;41.09;100856.00;5036214;28;20101;-69
2022/08/18 03:54:14;;;;;;;;;;;;;;;20.01;41.42;100858.78;5042210;28;19959;-69
2022/08/18 03:56:42;;;;;;;;;;;;;;;20.01;41.34;100858.78;5044797;28;20384;-69
2022/08/18 03:59:11;;;;;;;;;;;;;;;20.00;40.97;100851.50;5060385;28;19925;-68
2022/08/18 04:01:40;;;;;;;;;;;;;;;20.01;41.56;100846.78;5044915;28;19924;-69
2022/08/18 04:04:13;;;;;;;;;;;;;;;20.01;41.43;100844.03;5030156;28;19948;-68
2022/08/18 04:06:44;;;;;;;;;;;;;;;20.01;41.34;100835.69;5041000;28;19925;-68
2022/08/18 04:09:14;;;;;;;;;;;;;;;20.00;41.58;100843.16;5051058;28;19935;-69
2022/08/18 04:11:42;;;;;;;;;;;;;;;20.01;41.52;100846.78;5030528;28;19925;-68
2022/08/18 04:14:11;;;;;;;;;;;;;;;20.01;41.29;100852.34;5043693;28;19925;-69
2022/08/18 04:16:39;;;;;;;;;;;;;;;20.01;41.34;100846.78;5044095;28;19925;-68
2022/08/18 04:19:07;;;;;;;;;;;;;;;20.01;41.62;100844.03;5045918;28;19955;-68
2022/08/18 04:21:36;;;;;;;;;;;;;;;20.01;41.73;100850.44;5031323;28;20404;-68
2022/08/18 04:24:07;;;;;;;;;;;;;;;20.02;41.71;100856.84;5032121;28;20336;-68
2022/08/18 04:26:36;;;;;;;;;;;;;;;20.01;41.86;100853.22;5032961;28;19964;-69
2022/08/18 04:29:03;;;;;;;;;;;;;;;20.04;41.61;100856.66;5042099;28;20027;-69
2022/08/18 04:31:31;;;;;;;;;;;;;;;20.04;41.64;100845.56;5043873;28;19928;-69
2022/08/18 04:34:00;;;;;;;;;;;;;;;20.04;41.63;100849.16;5036624;28;19956;-68
2022/08/18 04:36:29;;;;;;;;;;;;;;;20.06;41.79;100843.41;5036169;28;19929;-68
2022/08/18 04:38:57;;;;;;;;;;;;;;;20.05;41.54;100838.91;5035946;28;19925;-68
2022/08/18 04:41:28;;;;;;;;;;;;;;;20.07;41.67;100842.34;5043761;28;19932;-68
2022/08/18 04:43:57;;;;;;;;;;;;;;;20.09;41.66;100851.38;5033219;28;19932;-68
2022/08/18 04:46:25;;;;;;;;;;;;;;;20.09;41.81;100848.59;5044318;28;19925;-68
2022/08/18 04:48:55;;;;;;;;;;;;;;;20.10;41.81;100853.94;5039863;28;20459;-68
2022/08/18 04:51:22;;;;;;;;;;;;;;;20.11;41.89;100866.78;5041495;28;20305;-68
2022/08/18 04:54:10;;;;;;;;;;;;;;;20.13;41.94;100869.34;5033140;28;20305;-68
2022/08/18 04:56:39;;;;;;;;;;;;;;;20.14;42.03;100866.38;5043695;28;19924;-68
2022/08/18 04:59:08;;;;;;;;;;;;;;;20.14;41.76;100863.59;5042716;28;19929;-68
2022/08/18 05:01:38;;;;;;;;;;;;;;;20.15;41.58;100868.09;5039701;28;19935;-68
2022/08/18 05:04:06;;;;;;;;;;;;;;;20.17;41.60;100874.34;5039626;28;20011;-68
2022/08/18 05:06:35;;;;;;;;;;;;;;;20.18;41.67;100877.97;5038761;28;20025;-68
2022/08/18 05:09:04;;;;;;;;;;;;;;;20.20;41.80;100879.47;5036770;28;19929;-68
2022/08/18 05:11:33;;;;;;;;;;;;;;;20.21;41.80;100872.00;5041705;28;20373;-69
2022/08/18 05:14:03;;;;;;;;;;;;;;;20.22;41.78;100865.38;5039138;28;20325;-68
2022/08/18 05:16:35;;;;;;;;;;;;;;;20.23;42.11;100884.66;5038603;28;19933;-68
2022/08/18 05:19:15;;;;;;;;;;;;;;;20.25;42.25;100876.97;5040796;28;19964;-68
2022/08/18 05:21:46;;;;;;;;;;;;;;;20.25;41.81;100881.69;5040905;28;19959;-69
2022/08/18 05:24:18;;;;;;;;;;;;;;;20.26;41.69;100881.50;5026888;28;20637;-69
2022/08/18 05:26:46;;;;;;;;;;;;;;;20.27;42.34;100886.00;5044939;28;19932;-68
2022/08/18 05:29:15;;;;;;;;;;;;;;;20.28;41.85;100890.47;5047143;28;19948;-68
2022/08/18 05:31:46;;;;;;;;;;;;;;;20.29;41.87;100888.53;5046201;28;20240;-68
2022/08/18 05:34:14;;;;;;;;;;;;;;;20.30;42.00;100887.50;5043724;28;19947;-68
2022/08/18 05:36:57;;;;;;;;;;;;;;;20.32;42.22;100882.59;5047383;28;20028;-69
2022/08/18 05:39:28;;;;;;;;;;;;;;;20.32;41.85;100886.25;5033759;28;20330;-69
2022/08/18 05:42:01;;;;;;;;;;;;;;;20.33;42.00;100881.56;5040014;28;20021;-70
2022/08/18 05:44:33;;;;;;;;;;;;;;;20.34;42.19;100886.06;5037199;28;19933;-70
2022/08/18 05:47:03;;;;;;;;;;;;;;;20.34;41.96;100889.69;5036924;28;20427;-69
2022/08/18 05:49:31;;;;;;;;;;;;;;;20.36;42.13;100897.84;5032628;28;19987;-69
2022/08/18 05:52:00;;;;;;;;;;;;;;;20.37;41.87;100894.84;5045500;28;19935;-69
2022/08/18 05:57:20;;;;;;;;;;;;;;;20.39;42.05;100912.19;5030206;28;19925;-70
2022/08/18 05:59:52;;;;;;;;;;;;;;;20.40;42.22;100913.06;5037825;28;19926;-70
2022/08/18 06:02:27;;;;;;;;;;;;;;;20.40;41.97;100913.91;5041817;28;20019;-70
2022/08/18 06:04:56;;;;;;;;;;;;;;;20.42;42.19;100913.72;5045711;28;19960;-70
2022/08/18 06:07:30;;;;;;;;;;;;;;;20.42;41.86;100918.41;5029767;28;20020;-69
2022/08/18 06:10:00;;;;;;;;;;;;;;;20.43;42.13;100920.16;5042985;28;19932;-70
2022/08/18 06:12:32;;;;;;;;;;;;;;;20.43;42.44;100917.38;5060344;28;20491;-70
2022/08/18 06:15:08;;;;;;;;;;;;;;;20.44;41.88;100919.97;5043599;28;19931;-70
2022/08/18 06:17:42;;;;;;;;;;;;;;;20.44;42.04;100922.75;5035043;28;20036;-70
2022/08/18 06:20:18;;;;;;;;;;;;;;;20.46;42.15;100922.50;5044462;28;19979;-70
2022/08/18 06:22:55;;;;;;;;;;;;;;;20.45;41.85;100920.81;5044870;28;19931;-69
2022/08/18 06:25:31;;;;;;;;;;;;;;;20.45;42.02;100926.38;5044450;28;19929;-69
2022/08/18 06:28:02;;;;;;;;;;;;;;;20.45;42.16;100929.16;5045883;28;20381;-69
2022/08/18 06:30:38;;;;;;;;;;;;;;;20.45;42.19;100930.00;5047109;28;19925;-71
2022/08/18 06:33:11;;;;;;;;;;;;;;;20.45;41.91;100932.78;5039370;28;19932;-70
2022/08/18 06:35:43;;;;;;;;;;;;;;;20.46;42.50;100933.63;5053499;28;19980;-68
2022/08/18 06:38:40;;;;;;;;;;;;;;;20.47;42.08;100936.22;5047451;28;20356;-69
2022/08/18 06:41:14;;;;;;;;;;;;;;;20.48;42.29;100939.88;5041514;28;19932;-69
2022/08/18 06:44:04;;;;;;;;;;;;;;;20.47;42.54;100947.34;5048694;28;20033;-69
2022/08/18 06:46:36;;;;;;;;;;;;;;;20.49;42.12;100942.44;5047798;28;20035;-69
2022/08/18 06:49:07;;;;;;;;;;;;;;;20.49;42.30;100942.44;5039270;28;19947;-69
2022/08/18 06:51:36;;;;;;;;;;;;;;;20.50;42.46;100946.09;5044852;28;20328;-69
2022/08/18 06:54:10;;;;;;;;;;;;;;;20.51;42.34;100943.13;5042292;28;19935;-69
2022/08/18 06:56:48;;;;;;;;;;;;;;;20.51;42.60;100956.16;5043146;28;19928;-70
2022/08/18 06:59:19;;;;;;;;;;;;;;;20.51;42.50;100954.25;5043832;28;19968;-70
2022/08/18 07:01:50;;;;;;;;;;;;;;;20.51;42.53;100956.16;5044153;28;19925;-69
2022/08/18 07:04:37;;;;;;;;;;;;;;;20.52;42.27;100953.19;5047856;28;20046;-70
2022/08/18 07:07:12;;;;;;;;;;;;;;;20.52;42.33;100953.19;5047842;28;19928;-70
2022/08/18 07:09:40;;;;;;;;;;;;;;;20.53;42.74;100948.50;5040811;28;19929;-70
2022/08/18 07:12:10;;;;;;;;;;;;;;;20.52;42.38;100947.63;5041258;28;20299;-70
2022/08/18 07:14:46;;;;;;;;;;;;;;;20.55;42.34;100949.13;5039652;28;19925;-71
2022/08/18 07:17:22;;;;;;;;;;;;;;;20.55;42.27;100950.00;5043877;28;19933;-69
2022/08/18 07:20:18;;;;;;;;;;;;;;;20.56;42.56;100948.94;5042072;28;20002;-70
2022/08/18 07:22:57;;;;;;;;;;;;;;;20.57;42.44;100947.88;5046563;28;19943;-70
2022/08/18 07:25:29;;;;;;;;;;;;;;;20.59;42.72;100950.50;5042185;28;19928;-70
2022/08/18 07:27:56;;;;;;;;;;;;;;;20.59;42.21;100945.81;5043578;28;20072;-70
2022/08/18 07:30:35;;;;;;;;;;;;;;;20.62;42.30;100950.09;5040455;28;20032;-69
2022/08/18 07:33:10;;;;;;;;;;;;;;;20.63;42.35;100946.25;5044351;28;20021;-70
2022/08/18 07:35:42;;;;;;;;;;;;;;;20.64;42.67;100946.06;5041115;28;19963;-70
2022/08/18 07:38:16;;;;;;;;;;;;;;;20.66;42.33;100940.31;5051692;22;19939;-68
2022/08/18 07:41:08;;;;;;;;;;;;;;;20.68;42.77;100936.28;5044029;28;20340;-69
2022/08/18 07:43:39;;;;;;;;;;;;;;;20.70;42.22;100936.06;5042295;28;20158;-69
2022/08/18 07:46:10;;;;;;;;;;;;;;;20.72;42.81;100931.16;5041709;28;19925;-69
2022/08/18 07:48:39;;;;;;;;;;;;;;;20.72;42.20;100929.25;5040186;28;19925;-69
2022/08/18 07:51:13;;;;;;;;;;;;;;;20.75;42.36;100928.00;5040144;28;20348;-69
2022/08/18 07:53:51;;;;;;;;;;;;;;;20.77;42.83;100931.44;5042537;28;19929;-67
2022/08/18 07:56:28;;;;;;;;;;;;;;;20.78;42.71;100922.88;5036860;28;19928;-69
2022/08/18 07:58:58;;;;;;;;;;;;;;;20.80;42.41;100925.47;5060650;28;19940;-68
2022/08/18 08:01:31;;;;;;;;;;;;;;;20.82;42.25;100930.81;5043560;28;19955;-68
2022/08/18 08:04:13;;;;;;;;;;;;;;;20.84;42.37;100939.84;5032886;28;19925;-69
2022/08/18 08:06:54;;;;;;;;;;;;;;;20.85;42.50;100948.00;5034074;28;20027;-68
2022/08/18 08:09:45;;;;;;;;;;;;;;;20.88;42.48;100946.72;5034171;28;19929;-69
2022/08/18 08:12:33;;;;;;;;;;;;;;;20.90;42.42;100948.25;5039017;28;19983;-69
2022/08/18 08:15:06;;;;;;;;;;;;;;;20.93;42.56;100947.00;5048532;28;20474;-69
2022/08/18 08:17:43;;;;;;;;;;;;;;;20.95;42.14;100954.06;5037046;28;19952;-69
2022/08/18 08:20:19;;;;;;;;;;;;;;;20.99;42.53;100952.59;5035354;28;19925;-69
2022/08/18 08:22:54;;;;;;;;;;;;;;;21.00;42.18;100951.56;5049345;28;20428;-69
2022/08/18 08:25:24;;;;;;;;;;;;;;;21.03;42.17;100962.25;5038267;28;19941;-69
2022/08/18 08:28:15;;;;;;;;;;;;;;;21.06;42.03;100956.31;5036044;28;19964;-69
2022/08/18 08:30:46;;;;;;;;;;;;;;;21.10;42.31;100963.22;5040518;28;19929;-68
2022/08/18 08:33:19;;;;;;;;;;;;;;;21.15;42.19;100968.16;5037905;28;19932;-69
2022/08/18 08:35:51;;;;;;;;;;;;;;;21.20;42.43;100967.53;5047247;28;19925;-69
2022/08/18 08:38:22;;;;;;;;;;;;;;;21.24;42.12;100958.59;5052220;28;20496;-68
2022/08/18 08:41:12;;;;;;;;;;;;;;;21.30;42.45;100963.38;5048506;28;19995;-69
2022/08/18 08:43:41;;;;;;;;;;;;;;;21.36;42.25;100967.25;5048788;28;19925;-69
2022/08/18 08:46:10;;;;;;;;;;;;;;;21.42;42.70;100972.03;5048756;28;20353;-69
2022/08/18 08:48:41;;;;;;;;;;;;;;;21.50;42.53;100971.91;5044170;28;19925;-69
2022/08/18 08:51:17;;;;;;;;;;;;;;;21.57;42.47;100975.56;5038502;28;19925;-68
2022/08/18 08:53:50;;;;;;;;;;;;;;;21.66;42.55;100977.16;5041163;28;19960;-69
2022/08/18 08:56:21;;;;;;;;;;;;;;;21.74;42.42;100976.13;5028395;28;20358;-69
2022/08/18 08:58:50;;;;;;;;;;;;;;;21.82;42.40;100981.53;5040855;28;20029;-68
2022/08/18 09:01:24;;;;;;;;;;;;;;;21.89;41.97;100980.50;5048360;28;20036;-68
2022/08/18 09:03:56;;;;;;;;;;;;;;;21.99;42.02;100980.16;5047660;28;20011;-69
2022/08/18 09:06:33;;;;;;;;;;;;;;;22.06;41.68;100978.25;5048585;28;19928;-68
2022/08/18 09:09:09;;;;;;;;;;;;;;;22.14;42.07;100980.00;5047615;28;20361;-68
2022/08/18 09:11:52;;;;;;;;;;;;;;;22.21;41.51;100976.16;5046018;28;20379;-68
2022/08/18 09:14:43;;;;;;;;;;;;;;;22.29;41.88;100975.13;5037227;28;19925;-69
2022/08/18 09:17:23;;;;;;;;;;;;;;;22.37;41.56;100977.72;5051616;28;20022;-68
2022/08/18 09:20:08;;;;;;;;;;;;;;;22.45;41.71;100969.19;5043131;28;20309;-68
2022/08/18 09:22:43;;;;;;;;;;;;;;;22.51;41.46;100957.16;5045065;28;19931;-68
2022/08/18 09:25:11;;;;;;;;;;;;;;;22.60;41.46;100961.53;5034069;28;19925;-69
2022/08/18 09:27:42;;;;;;;;;;;;;;;22.68;41.64;100967.97;5047634;28;19931;-68
2022/08/18 09:30:39;;;;;;;;;;;;;;;22.78;41.40;100960.06;5037081;28;19960;-68
2022/08/18 09:33:23;;;;;;;;;;;;;;;22.88;41.35;100960.50;5042582;28;20016;-68
2022/08/18 09:36:09;;;;;;;;;;;;;;;22.98;41.53;100947.84;5027401;28;20501;-68
2022/08/18 09:41:35;;;;;;;;;;;;;;;23.25;40.98;100959.88;5035999;28;19924;-69
2022/08/18 09:44:09;;;;;;;;;;;;;;;23.37;41.06;100972.16;5044905;28;20393;-69
2022/08/18 09:46:59;;;;;;;;;;;;;;;23.50;40.97;100962.88;5040476;28;19932;-69
2022/08/18 09:49:32;;;;;;;;;;;;;;;23.63;40.51;100973.19;5045271;28;19929;-69
2022/08/18 09:52:19;;;;;;;;;;;;;;;23.72;40.23;100963.50;5045994;28;20369;-69
2022/08/18 09:54:53;;;;;;;;;;;;;;;23.81;40.32;100965.00;5037740;28;19925;-69
2022/08/18 09:57:23;;;;;;;;;;;;;;;23.90;40.31;100962.84;5048018;28;19928;-69
2022/08/18 09:59:52;;;;;;;;;;;;;;;23.96;40.11;100960.03;5042912;28;19924;-69
2022/08/18 10:02:44;;;;;;;;;;;;;;;24.04;39.86;100964.50;5049094;28;20284;-69
2022/08/18 10:05:29;;;;;;;;;;;;;;;24.13;40.12;100974.38;5041075;28;20401;-69
2022/08/18 10:08:18;;;;;;;;;;;;;;;24.24;39.82;100972.81;5051811;28;19924;-68
2022/08/18 10:10:53;;;;;;;;;;;;;;;24.34;39.68;100973.19;5031036;28;19932;-69
2022/08/18 10:13:35;;;;;;;;;;;;;;;24.44;39.51;100968.00;5048898;28;20332;-69
2022/08/18 10:16:10;;;;;;;;;;;;;;;24.54;39.31;100967.53;5038858;28;19925;-69
2022/08/18 10:18:43;;;;;;;;;;;;;;;24.61;39.16;100962.75;5042751;28;19931;-69
2022/08/18 10:21:17;;;;;;;;;;;;;;;24.68;39.02;100964.41;5050986;28;19928;-69
2022/08/18 10:23:50;;;;;;;;;;;;;;;24.74;39.10;100966.31;5039946;28;20015;-69
2022/08/18 10:27:02;;;;;;;;;;;;;;;24.79;38.59;100972.13;5031409;28;19940;-69
2022/08/18 10:29:49;;;;;;;;;;;;;;;24.84;38.35;100960.22;5029381;28;19932;-69
2022/08/18 10:32:21;;;;;;;;;;;;;;;24.87;38.26;100962.59;5031115;28;19925;-68
2022/08/18 10:34:51;;;;;;;;;;;;;;;24.88;38.16;100959.56;5049764;28;19963;-69
2022/08/18 10:37:21;;;;;;;;;;;;;;;24.88;38.02;100956.75;5037585;28;19929;-69
2022/08/18 10:39:54;;;;;;;;;;;;;;;24.87;38.10;100955.03;5050131;28;19924;-69
2022/08/18 10:42:23;;;;;;;;;;;;;;;24.87;38.08;100962.59;5050984;28;20433;-69
2022/08/18 10:45:02;;;;;;;;;;;;;;;24.85;37.89;100959.16;5039630;28;19925;-68
2022/08/18 10:47:33;;;;;;;;;;;;;;;24.85;37.61;100965.59;5046494;28;19935;-69
2022/08/18 10:50:03;;;;;;;;;;;;;;;24.84;37.65;100949.88;5041023;28;20401;-69
2022/08/18 10:52:41;;;;;;;;;;;;;;;24.85;37.63;100957.19;5032998;28;19979;-69
2022/08/18 10:55:30;;;;;;;;;;;;;;;24.87;37.68;100955.03;5044371;28;19929;-70
2022/08/18 10:58:29;;;;;;;;;;;;;;;24.87;37.68;100946.66;5050213;28;19931;-69
2022/08/18 11:01:06;;;;;;;;;;;;;;;24.91;37.73;100952.63;5046853;28;19968;-69
2022/08/18 11:03:43;;;;;;;;;;;;;;;24.93;37.61;100942.06;5035852;28;19932;-69
2022/08/18 11:06:23;;;;;;;;;;;;;;;24.98;37.77;100933.88;5050317;28;19924;-69
2022/08/18 11:08:52;;;;;;;;;;;;;;;25.02;37.71;100934.28;5042846;28;20016;-69
2022/08/18 11:11:25;;;;;;;;;;;;;;;25.07;37.44;100914.84;5043637;28;20386;-71
2022/08/18 11:14:24;;;;;;;;;;;;;;;25.12;37.65;100915.88;5039629;28;19928;-69
2022/08/18 11:16:58;;;;;;;;;;;;;;;25.19;37.28;100925.09;5036772;28;20019;-68
2022/08/18 11:19:27;;;;;;;;;;;;;;;25.25;37.23;100924.16;5043785;28;19932;-69
2022/08/18 11:21:55;;;;;;;;;;;;;;;25.31;37.19;100924.34;5050563;28;19924;-70
2022/08/18 11:24:24;;;;;;;;;;;;;;;25.37;37.12;100920.59;5045846;28;19925;-69
2022/08/18 11:26:53;;;;;;;;;;;;;;;25.42;37.05;100924.41;5037833;28;19925;-69
2022/08/18 11:29:27;;;;;;;;;;;;;;;25.48;36.85;100923.50;5044072;28;19944;-69
2022/08/18 11:31:57;;;;;;;;;;;;;;;25.55;36.98;100920.69;5048505;28;19971;-69
2022/08/18 11:34:31;;;;;;;;;;;;;;;25.59;36.93;100922.75;5036151;28;19924;-69
2022/08/18 11:37:00;;;;;;;;;;;;;;;25.63;36.58;100912.81;5049532;28;20019;-69
2022/08/18 11:39:28;;;;;;;;;;;;;;;25.70;36.43;100911.88;5044567;28;20011;-69
2022/08/18 11:42:17;;;;;;;;;;;;;;;25.74;36.31;100901.91;5035883;28;19925;-69
2022/08/18 11:44:53;;;;;;;;;;;;;;;25.77;36.31;100902.31;5029206;28;19925;-69
2022/08/18 11:47:23;;;;;;;;;;;;;;;25.79;36.05;100897.31;5044149;28;20020;-69
2022/08/18 11:50:12;;;;;;;;;;;;;;;25.83;36.21;100900.50;5029227;28;19925;-68
2022/08/18 11:52:48;;;;;;;;;;;;;;;25.85;36.08;100903.94;5029093;28;20460;-69
2022/08/18 11:55:27;;;;;;;;;;;;;;;25.86;35.76;100902.84;5043561;28;19971;-69
2022/08/18 11:57:56;;;;;;;;;;;;;;;25.87;35.73;100898.97;5043568;28;20024;-69
2022/08/18 12:00:40;;;;;;;;;;;;;;;25.88;35.64;100903.47;5044675;28;19936;-70
2022/08/18 12:03:14;;;;;;;;;;;;;;;25.88;35.67;100907.13;5042619;28;20024;-69
2022/08/18 12:05:45;;;;;;;;;;;;;;;25.88;35.46;100903.47;5028430;28;19925;-69
2022/08/18 12:08:25;;;;;;;;;;;;;;;25.88;35.59;100900.66;5044709;28;19925;-69
2022/08/18 12:11:15;;;;;;;;;;;;;;;25.88;35.50;100895.91;5048460;28;19925;-69
2022/08/18 12:13:58;;;;;;;;;;;;;;;25.88;35.54;100898.72;5041168;28;20015;-69
2022/08/18 12:16:38;;;;;;;;;;;;;;;25.88;35.39;100892.25;5044129;28;19929;-69
2022/08/18 12:19:08;;;;;;;;;;;;;;;25.87;35.42;100893.34;5048623;28;19933;-69
2022/08/18 12:21:39;;;;;;;;;;;;;;;25.85;35.19;100903.94;5049297;28;19929;-69
2022/08/18 12:24:11;;;;;;;;;;;;;;;25.83;35.27;100903.31;5047938;28;20313;-69
2022/08/18 12:26:40;;;;;;;;;;;;;;;25.81;35.33;100916.69;5042788;28;19925;-69
2022/08/18 12:29:16;;;;;;;;;;;;;;;25.80;35.42;100920.63;5034504;28;19929;-69
2022/08/18 12:31:44;;;;;;;;;;;;;;;25.77;35.30;100924.72;5028394;28;19936;-69
2022/08/18 12:34:18;;;;;;;;;;;;;;;25.76;35.33;100936.16;5028631;28;19925;-69
2022/08/18 12:36:54;;;;;;;;;;;;;;;25.75;35.27;100948.47;5049053;28;19929;-69
2022/08/18 12:39:22;;;;;;;;;;;;;;;25.72;35.25;100951.75;5045267;28;20074;-69
2022/08/18 12:41:50;;;;;;;;;;;;;;;25.71;35.41;100955.66;5028575;28;19929;-69
2022/08/18 12:44:19;;;;;;;;;;;;;;;25.69;35.38;100966.22;5044721;28;20376;-69
2022/08/18 12:46:48;;;;;;;;;;;;;;;25.68;35.26;100978.53;5037007;28;20390;-69
2022/08/18 12:49:18;;;;;;;;;;;;;;;25.66;35.27;100969.47;5045889;28;20056;-69
2022/08/18 12:51:47;;;;;;;;;;;;;;;25.65;35.21;100968.63;5043883;28;19959;-69
2022/08/18 12:54:17;;;;;;;;;;;;;;;25.63;35.31;100954.88;5041184;28;19932;-69
2022/08/18 12:56:48;;;;;;;;;;;;;;;25.63;35.04;100945.59;5041747;28;19932;-69
2022/08/18 12:59:16;;;;;;;;;;;;;;;25.63;35.32;100938.03;5047668;28;19925;-69
2022/08/18 13:01:44;;;;;;;;;;;;;;;25.62;35.23;100933.53;5035005;28;19935;-69
2022/08/18 13:04:12;;;;;;;;;;;;;;;25.62;35.23;100927.91;5047376;28;19925;-68
2022/08/18 13:06:47;;;;;;;;;;;;;;;25.62;35.28;100925.13;5048301;28;19925;-69
2022/08/18 13:09:27;;;;;;;;;;;;;;;25.64;35.10;100917.31;5036541;28;19952;-68
2022/08/18 13:12:16;;;;;;;;;;;;;;;25.64;34.95;100903.28;5028013;28;20027;-69
2022/08/18 13:14:44;;;;;;;;;;;;;;;25.67;35.16;100901.13;5028461;28;19925;-68
2022/08/18 13:17:12;;;;;;;;;;;;;;;25.68;35.00;100900.91;5040155;28;19932;-68
2022/08/18 13:20:00;;;;;;;;;;;;;;;25.72;35.09;100904.09;5044703;28;20292;-68